createdAt,value
2022-09-14T00:02:08.065Z,1.65
2022-09-14T00:04:42.085Z,1.73
2022-09-14T00:07:14.093Z,1.38
2022-09-14T00:09:46.209Z,1.52
2022-09-14T00:12:18.343Z,1.27
2022-09-14T00:14:50.474Z,2.45
2022-09-14T00:17:22.485Z,1.65
2022-09-14T00:19:54.461Z,3.20
2022-09-14T00:22:26.500Z,2.28
2022-09-14T00:24:58.535Z,2.92
2022-09-14T00:27:30.604Z,4.18
2022-09-14T00:30:02.971Z,2.78
2022-09-14T00:32:35.423Z,2.38
2022-09-14T00:35:08.021Z,2.65
2022-09-14T00:37:40.350Z,2.00
2022-09-14T00:40:12.660Z,2.35
2022-09-14T00:42:45.921Z,2.63
2022-09-14T00:45:21.779Z,3.03
2022-09-14T00:47:54.604Z,1.98
2022-09-14T00:50:26.871Z,1.92
2022-09-14T00:52:59.579Z,2.60
2022-09-14T00:55:33.238Z,2.30
2022-09-14T00:58:05.474Z,2.05
2022-09-14T01:00:37.747Z,1.77
2022-09-14T01:03:09.899Z,2.03
2022-09-14T01:06:16.113Z,2.63
2022-09-14T01:09:41.892Z,1.65
2022-09-14T01:12:50.104Z,2.13
2022-09-14T01:15:56.592Z,1.67
2022-09-14T01:18:47.370Z,1.35
2022-09-14T01:21:35.239Z,2.33
2022-09-14T01:24:31.585Z,2.50
2022-09-14T01:27:25.353Z,1.85
2022-09-14T01:30:20.222Z,2.08
2022-09-14T01:33:19.671Z,2.10
2022-09-14T01:35:58.690Z,4.53
2022-09-14T01:38:49.163Z,2.83
2022-09-14T01:41:25.259Z,2.50
2022-09-14T01:44:13.681Z,2.60
2022-09-14T01:46:53.973Z,2.13
2022-09-14T01:49:32.337Z,2.42
2022-09-14T01:52:22.020Z,2.22
2022-09-14T01:55:23.017Z,2.53
2022-09-14T01:58:20.225Z,2.55
2022-09-14T02:00:56.821Z,2.30
2022-09-14T02:03:45.158Z,2.10
2022-09-14T02:06:29.171Z,2.00
2022-09-14T02:09:01.727Z,2.65
2022-09-14T02:11:33.803Z,2.25
2022-09-14T02:14:06.782Z,2.10
2022-09-14T02:16:40.359Z,1.92
2022-09-14T02:19:13.910Z,2.05
2022-09-14T02:21:46.096Z,2.33
2022-09-14T02:24:18.846Z,1.90
2022-09-14T02:26:53.329Z,2.35
2022-09-14T02:29:25.330Z,2.53
2022-09-14T02:32:43.943Z,2.10
2022-09-14T02:35:28.204Z,2.00
2022-09-14T02:38:40.701Z,1.75
2022-09-14T02:41:30.685Z,2.40
2022-09-14T02:44:24.805Z,2.00
2022-09-14T02:47:08.087Z,2.17
2022-09-14T02:49:52.694Z,2.72
2022-09-14T02:53:06.378Z,2.50
2022-09-14T02:55:50.167Z,3.10
2022-09-14T02:58:22.269Z,2.42
2022-09-14T03:00:54.379Z,2.15
2022-09-14T03:03:26.421Z,2.97
2022-09-14T03:05:58.410Z,3.30
2022-09-14T03:08:30.853Z,2.63
2022-09-14T03:11:03.158Z,2.83
2022-09-14T03:13:35.916Z,2.90
2022-09-14T03:16:11.752Z,3.45
2022-09-14T03:18:44.285Z,2.72
2022-09-14T03:21:17.709Z,2.83
2022-09-14T03:23:52.868Z,2.22
2022-09-14T03:26:27.573Z,3.42
2022-09-14T03:28:59.864Z,2.55
2022-09-14T03:31:33.263Z,3.00
2022-09-14T03:34:05.347Z,3.05
2022-09-14T03:36:37.303Z,2.85
2022-09-14T03:39:09.293Z,3.05
2022-09-14T03:41:41.202Z,2.55
2022-09-14T03:44:13.141Z,3.30
2022-09-14T03:46:45.237Z,3.33
2022-09-14T03:49:17.256Z,3.00
2022-09-14T03:51:49.157Z,3.25
2022-09-14T03:54:21.273Z,4.93
2022-09-14T03:56:54.168Z,2.97
2022-09-14T03:59:26.141Z,3.95
2022-09-14T04:01:58.107Z,3.63
2022-09-14T04:04:30.162Z,2.92
2022-09-14T04:07:02.059Z,3.28
2022-09-14T04:09:34.219Z,2.75
2022-09-14T04:12:06.609Z,4.00
2022-09-14T04:14:38.595Z,2.90
2022-09-14T04:17:10.586Z,3.70
2022-09-14T04:19:42.509Z,3.10
2022-09-14T04:22:14.410Z,3.97
2022-09-14T04:24:46.378Z,3.15
2022-09-14T04:27:18.315Z,3.60
2022-09-14T04:29:50.859Z,3.40
2022-09-14T04:32:22.760Z,4.05
2022-09-14T04:34:54.813Z,3.75
2022-09-14T04:37:26.775Z,4.07
2022-09-14T04:40:02.409Z,3.72
2022-09-14T04:42:34.365Z,3.72
2022-09-14T04:45:06.941Z,3.33
2022-09-14T04:47:39.115Z,3.70
2022-09-14T04:50:12.161Z,4.55
2022-09-14T04:52:44.123Z,3.55
2022-09-14T04:55:16.147Z,3.45
2022-09-14T04:57:48.052Z,3.58
2022-09-14T05:00:20.942Z,3.80
2022-09-14T05:02:52.887Z,3.20
2022-09-14T05:05:24.838Z,3.50
2022-09-14T05:07:56.778Z,3.55
2022-09-14T05:10:28.915Z,3.30
2022-09-14T05:13:00.820Z,3.67
2022-09-14T05:15:32.829Z,3.17
2022-09-14T05:18:05.160Z,3.20
2022-09-14T05:20:39.066Z,3.38
2022-09-14T05:23:11.589Z,4.28
2022-09-14T05:25:43.711Z,3.22
2022-09-14T05:28:15.588Z,3.25
2022-09-14T05:30:47.576Z,3.63
2022-09-14T05:33:20.622Z,3.40
2022-09-14T05:35:52.718Z,3.78
2022-09-14T05:38:24.624Z,3.90
2022-09-14T05:40:56.557Z,2.55
2022-09-14T05:43:29.938Z,3.30
2022-09-14T05:46:11.485Z,3.25
2022-09-14T05:48:44.188Z,3.13
2022-09-14T05:51:20.398Z,3.20
2022-09-14T05:53:57.890Z,3.28
2022-09-14T05:56:31.970Z,2.33
2022-09-14T05:59:04.408Z,3.55
2022-09-14T06:01:36.408Z,2.20
2022-09-14T06:04:11.385Z,2.88
2022-09-14T06:06:55.930Z,3.92
2022-09-14T06:09:35.529Z,2.63
2022-09-14T06:12:07.745Z,2.53
2022-09-14T06:14:40.845Z,2.50
2022-09-14T06:17:12.903Z,2.50
2022-09-14T06:19:44.789Z,3.38
2022-09-14T06:22:16.872Z,2.47
2022-09-14T06:24:48.840Z,2.75
2022-09-14T06:27:20.776Z,2.90
2022-09-14T06:29:53.924Z,3.50
2022-09-14T06:32:27.395Z,2.75
2022-09-14T06:34:59.701Z,2.95
2022-09-14T06:37:31.618Z,3.22
2022-09-14T06:40:04.833Z,3.97
2022-09-14T06:42:36.852Z,3.20
2022-09-14T06:45:09.140Z,3.05
2022-09-14T06:47:41.122Z,3.20
2022-09-14T06:50:13.638Z,3.65
2022-09-14T06:52:45.587Z,2.60
2022-09-14T06:55:17.577Z,2.75
2022-09-14T06:57:49.552Z,3.05
2022-09-14T07:00:21.678Z,3.05
2022-09-14T07:02:55.759Z,2.63
2022-09-14T07:05:28.064Z,2.70
2022-09-14T07:08:00.014Z,2.45
2022-09-14T07:10:31.934Z,2.35
2022-09-14T07:13:03.911Z,2.72
2022-09-14T07:15:35.807Z,2.90
2022-09-14T07:18:07.764Z,2.38
2022-09-14T07:20:39.723Z,2.83
2022-09-14T07:23:13.584Z,2.90
2022-09-14T07:25:45.562Z,2.47
2022-09-14T07:28:17.450Z,2.33
2022-09-14T07:30:49.406Z,2.50
2022-09-14T07:33:21.375Z,2.63
2022-09-14T07:35:53.377Z,2.63
2022-09-14T07:38:48.208Z,2.30
2022-09-14T07:41:18.260Z,2.33
2022-09-14T07:43:56.873Z,2.83
2022-09-14T07:46:33.259Z,2.90
2022-09-14T07:49:07.064Z,2.90
2022-09-14T07:51:40.028Z,3.60
2022-09-14T07:54:14.786Z,3.70
2022-09-14T07:56:47.166Z,3.30
2022-09-14T07:59:36.809Z,2.75
2022-09-14T08:02:11.310Z,2.63
2022-09-14T08:04:43.528Z,2.42
2022-09-14T08:07:18.188Z,2.72
2022-09-14T08:09:50.263Z,2.90
2022-09-14T08:12:22.553Z,3.92
2022-09-14T08:14:54.991Z,2.22
2022-09-14T08:17:26.945Z,2.42
2022-09-14T08:19:58.872Z,2.22
2022-09-14T08:22:30.812Z,2.83
2022-09-14T08:25:02.736Z,2.50
2022-09-14T08:27:34.722Z,3.47
2022-09-14T08:30:07.680Z,3.13
2022-09-14T08:32:39.609Z,4.10
2022-09-14T08:35:11.571Z,2.15
2022-09-14T08:37:43.470Z,1.63
2022-09-14T08:40:17.537Z,1.67
2022-09-14T08:42:50.872Z,1.75
2022-09-14T08:45:24.271Z,1.38
2022-09-14T08:47:58.833Z,1.42
2022-09-14T08:50:33.852Z,2.78
2022-09-14T08:53:09.076Z,1.77
2022-09-14T08:56:08.942Z,2.70
2022-09-14T08:59:17.300Z,1.40
2022-09-14T09:02:55.710Z,1.65
2022-09-14T09:05:33.519Z,1.45
2022-09-14T09:08:39.053Z,2.33
2022-09-14T09:11:18.768Z,1.00
2022-09-14T09:13:53.232Z,1.35
2022-09-14T09:16:27.308Z,1.48
2022-09-14T09:19:05.983Z,1.00
2022-09-14T09:21:46.284Z,1.58
2022-09-14T09:27:15.479Z,1.65
2022-09-14T09:29:47.519Z,1.42
2022-09-14T09:32:24.915Z,1.08
2022-09-14T09:34:56.942Z,1.17
2022-09-14T09:37:34.919Z,1.20
2022-09-14T09:40:20.405Z,1.00
2022-09-14T09:43:06.013Z,1.48
2022-09-14T09:45:59.696Z,2.38
2022-09-14T09:48:44.363Z,1.35
2022-09-14T09:51:24.247Z,1.00
2022-09-14T09:54:15.382Z,0.65
2022-09-14T09:56:57.341Z,1.02
2022-09-14T09:59:42.372Z,0.52
2022-09-14T10:02:30.897Z,1.60
2022-09-14T10:05:21.588Z,0.85
2022-09-14T10:08:00.216Z,0.65
2022-09-14T10:10:34.890Z,1.30
2022-09-14T10:13:26.189Z,1.10
2022-09-14T10:16:18.915Z,0.85
2022-09-14T10:18:53.271Z,0.95
2022-09-14T10:21:26.479Z,0.80
2022-09-14T10:24:15.338Z,1.17
2022-09-14T10:26:47.314Z,0.82
2022-09-14T10:29:39.985Z,0.95
2022-09-14T10:32:23.640Z,0.55
2022-09-14T10:34:55.738Z,1.17
2022-09-14T10:37:47.470Z,0.90
2022-09-14T10:40:27.695Z,1.08
2022-09-14T10:43:04.012Z,1.23
2022-09-14T10:45:41.910Z,1.13
2022-09-14T10:48:43.642Z,1.52
2022-09-14T10:51:38.085Z,0.98
2022-09-14T10:54:41.573Z,1.00
2022-09-14T10:57:53.528Z,0.90
2022-09-14T11:00:26.895Z,0.88
2022-09-14T11:03:24.801Z,1.20
2022-09-14T11:06:34.576Z,0.77
2022-09-14T11:09:30.942Z,0.80
2022-09-14T11:12:30.889Z,0.73
2022-09-14T11:17:48.890Z,0.80
2022-09-14T11:21:20.798Z,0.52
2022-09-14T11:24:12.061Z,0.70
2022-09-14T11:27:20.885Z,0.90
2022-09-14T11:30:03.862Z,1.13
2022-09-14T11:32:48.317Z,0.88
2022-09-14T11:35:45.611Z,1.27
2022-09-14T11:38:20.754Z,1.83
2022-09-14T11:41:43.439Z,1.20
2022-09-14T11:44:25.350Z,0.77
2022-09-14T11:47:07.220Z,1.27
2022-09-14T11:50:18.439Z,1.23
2022-09-14T11:53:11.081Z,0.75
2022-09-14T11:55:49.928Z,1.10
2022-09-14T11:58:29.758Z,1.23
2022-09-14T12:01:36.993Z,1.20
2022-09-14T12:04:14.491Z,1.10
2022-09-14T12:06:54.245Z,1.42
2022-09-14T12:09:26.091Z,1.73
2022-09-14T12:11:58.770Z,1.38
2022-09-14T12:14:40.663Z,1.20
2022-09-14T12:17:39.534Z,1.50
2022-09-14T12:20:44.672Z,1.10
2022-09-14T12:23:37.862Z,0.90
2022-09-14T12:26:18.986Z,1.73
2022-09-14T12:28:56.223Z,1.60
2022-09-14T12:31:48.004Z,1.10
2022-09-14T12:34:23.504Z,1.08
2022-09-14T12:36:57.945Z,1.08
2022-09-14T12:39:35.667Z,1.33
2022-09-14T12:42:30.090Z,1.23
2022-09-14T12:45:51.370Z,1.00
2022-09-14T12:48:48.280Z,0.93
2022-09-14T12:51:31.887Z,0.75
2022-09-14T12:54:09.979Z,0.80
2022-09-14T12:57:03.316Z,1.33
2022-09-14T13:00:09.950Z,1.08
2022-09-14T13:03:07.667Z,0.90
2022-09-14T13:05:44.508Z,0.90
2022-09-14T13:08:23.728Z,1.05
2022-09-14T13:10:55.787Z,1.20
2022-09-14T13:13:33.593Z,1.52
2022-09-14T13:16:07.396Z,1.50
2022-09-14T13:18:39.409Z,1.13
2022-09-14T13:21:24.078Z,1.20
2022-09-14T13:23:56.164Z,1.40
2022-09-14T13:26:31.708Z,1.60
2022-09-14T13:29:08.335Z,1.17
2022-09-14T13:31:40.647Z,1.98
2022-09-14T13:34:39.341Z,1.48
2022-09-14T13:37:14.921Z,1.10
2022-09-14T13:39:52.684Z,1.48
2022-09-14T13:42:25.623Z,0.98
2022-09-14T13:44:57.693Z,1.00
2022-09-14T13:47:29.812Z,1.55
2022-09-14T13:50:01.969Z,2.25
2022-09-14T13:53:00.566Z,1.73
2022-09-14T13:55:33.183Z,1.45
2022-09-14T13:58:09.291Z,0.95
2022-09-14T14:00:53.332Z,1.80
2022-09-14T14:03:33.715Z,1.23
2022-09-14T14:06:28.494Z,1.13
2022-09-14T14:09:11.450Z,2.08
2022-09-14T14:11:46.982Z,1.52
2022-09-14T14:14:31.145Z,2.20
2022-09-14T14:17:23.995Z,1.48
2022-09-14T14:19:58.912Z,1.73
2022-09-14T14:22:35.654Z,1.10
2022-09-14T14:25:28.876Z,1.70
2022-09-14T14:28:04.246Z,1.55
2022-09-14T14:30:40.365Z,1.90
2022-09-14T14:33:20.625Z,1.40
2022-09-14T14:38:26.570Z,2.13
2022-09-14T14:40:58.684Z,2.17
2022-09-14T14:43:31.206Z,1.60
2022-09-14T14:46:06.098Z,1.50
2022-09-14T14:48:38.400Z,1.83
2022-09-14T14:51:15.329Z,1.70
2022-09-14T14:53:47.475Z,1.15
2022-09-14T14:56:19.795Z,1.50
2022-09-14T14:58:51.807Z,1.27
2022-09-14T15:01:23.959Z,1.30
2022-09-14T15:03:56.193Z,1.65
2022-09-14T15:06:28.644Z,1.25
2022-09-14T15:09:00.751Z,1.25
2022-09-14T15:11:32.795Z,1.30
2022-09-14T15:14:05.262Z,2.30
2022-09-14T15:16:37.348Z,1.45
2022-09-14T15:19:10.710Z,1.60
2022-09-14T15:21:44.087Z,1.50
2022-09-14T15:24:16.017Z,1.20
2022-09-14T15:26:48.216Z,1.27
2022-09-14T15:29:20.182Z,1.98
2022-09-14T15:31:52.376Z,1.33
2022-09-14T15:34:24.467Z,1.73
2022-09-14T15:36:57.619Z,1.83
2022-09-14T15:39:31.664Z,2.67
2022-09-14T15:42:03.916Z,1.80
2022-09-14T15:44:35.954Z,1.50
2022-09-14T15:47:08.221Z,1.90
2022-09-14T15:49:40.666Z,2.55
2022-09-14T15:52:12.919Z,1.27
2022-09-14T15:54:44.927Z,1.40
2022-09-14T15:57:16.940Z,2.53
2022-09-14T15:59:48.854Z,1.67
2022-09-14T16:02:20.852Z,1.15
2022-09-14T16:04:53.062Z,2.63
2022-09-14T16:07:25.405Z,1.75
2022-09-14T16:09:59.066Z,1.50
2022-09-14T16:12:31.209Z,1.38
2022-09-14T16:15:03.209Z,1.10
2022-09-14T16:17:35.208Z,1.73
2022-09-14T16:20:10.334Z,1.88
2022-09-14T16:22:42.352Z,1.35
2022-09-14T16:25:15.782Z,1.25
2022-09-14T16:27:49.061Z,1.60
2022-09-14T16:30:21.058Z,1.70
2022-09-14T16:32:53.183Z,1.30
2022-09-14T16:35:25.636Z,1.40
2022-09-14T16:37:57.656Z,1.33
2022-09-14T16:40:29.667Z,1.85
2022-09-14T16:43:01.757Z,1.50
2022-09-14T16:45:33.799Z,1.42
2022-09-14T16:48:05.966Z,1.52
2022-09-14T16:50:37.887Z,1.38
2022-09-14T16:53:09.881Z,1.73
2022-09-14T16:55:41.836Z,2.03
2022-09-14T16:58:13.908Z,1.95
2022-09-14T17:00:46.039Z,1.95
2022-09-14T17:03:18.013Z,1.85
2022-09-14T17:05:50.271Z,1.55
2022-09-14T17:08:22.242Z,2.20
2022-09-14T17:10:54.178Z,1.75
2022-09-14T17:13:27.176Z,2.30
2022-09-14T17:16:07.207Z,1.75
2022-09-14T17:18:42.858Z,2.22
2022-09-14T17:21:24.978Z,1.45
2022-09-14T17:23:57.138Z,1.85
2022-09-14T17:26:29.056Z,1.42
2022-09-14T17:29:02.724Z,2.30
2022-09-14T17:31:39.378Z,1.85
2022-09-14T17:34:13.829Z,2.72
2022-09-14T17:36:46.271Z,2.45
2022-09-14T17:39:18.315Z,1.88
2022-09-14T17:41:50.278Z,2.05
2022-09-14T17:44:25.827Z,2.65
2022-09-14T17:46:58.159Z,2.30
2022-09-14T17:49:30.200Z,3.45
2022-09-14T17:52:03.183Z,2.53
2022-09-14T17:54:35.157Z,2.10
2022-09-14T17:57:07.042Z,1.83
2022-09-14T17:59:39.025Z,1.80
2022-09-14T18:02:11.255Z,1.60
2022-09-14T18:04:48.450Z,2.45
2022-09-14T18:07:20.592Z,2.42
2022-09-14T18:09:52.584Z,2.13
2022-09-14T18:12:25.008Z,2.67
2022-09-14T18:14:57.058Z,3.83
2022-09-14T18:17:28.975Z,2.80
2022-09-14T18:20:01.001Z,3.30
2022-09-14T18:22:32.945Z,3.35
2022-09-14T18:25:07.663Z,4.97
2022-09-14T18:27:40.292Z,2.58
2022-09-14T18:30:12.880Z,2.22
2022-09-14T18:32:46.318Z,2.00
2022-09-14T18:35:18.227Z,2.40
2022-09-14T18:37:50.144Z,2.10
2022-09-14T18:40:22.174Z,2.90
2022-09-14T18:42:54.219Z,3.70
2022-09-14T18:45:26.177Z,3.63
2022-09-14T18:47:58.171Z,3.60
2022-09-14T18:50:30.319Z,2.50
2022-09-14T18:53:02.228Z,3.05
2022-09-14T18:55:34.270Z,2.60
2022-09-14T18:58:06.150Z,2.53
2022-09-14T19:00:45.733Z,2.83
2022-09-14T19:03:17.660Z,2.72
2022-09-14T19:05:49.816Z,2.95
2022-09-14T19:08:22.641Z,3.03
2022-09-14T19:10:54.538Z,2.85
2022-09-14T19:13:29.945Z,2.60
2022-09-14T19:16:11.976Z,4.38
2022-09-14T19:18:46.536Z,3.65
2022-09-14T19:21:28.315Z,2.75
2022-09-14T19:24:07.681Z,2.63
2022-09-14T19:26:51.575Z,2.45
2022-09-14T19:29:25.120Z,2.90
2022-09-14T19:32:00.773Z,3.47
2022-09-14T19:34:33.015Z,3.97
2022-09-14T19:37:05.488Z,4.28
2022-09-14T19:39:37.631Z,3.38
2022-09-14T19:42:10.098Z,3.50
2022-09-14T19:44:42.059Z,3.47
2022-09-14T19:47:14.050Z,3.60
2022-09-14T19:49:46.044Z,6.75
2022-09-14T19:52:18.046Z,3.85
2022-09-14T19:54:49.998Z,2.75
2022-09-14T19:57:22.097Z,3.45
2022-09-14T19:59:54.342Z,3.90
2022-09-14T20:02:26.559Z,3.75
2022-09-14T20:04:58.609Z,3.95
2022-09-14T20:07:30.636Z,3.45
2022-09-14T20:10:02.624Z,3.33
2022-09-14T20:12:34.906Z,2.75
2022-09-14T20:15:07.622Z,2.50
2022-09-14T20:17:39.640Z,2.10
2022-09-14T20:20:11.841Z,3.30
2022-09-14T20:22:44.131Z,3.15
2022-09-14T20:25:16.157Z,3.58
2022-09-14T20:27:48.146Z,4.03
2022-09-14T20:30:20.637Z,3.25
2022-09-14T20:32:52.867Z,2.70
2022-09-14T20:35:24.790Z,3.05
2022-09-14T20:37:56.725Z,2.47
2022-09-14T20:40:28.844Z,2.47
2022-09-14T20:43:01.105Z,3.15
2022-09-14T20:45:32.983Z,2.83
2022-09-14T20:48:04.954Z,3.00
2022-09-14T20:50:36.875Z,2.33
2022-09-14T20:53:08.939Z,2.15
2022-09-14T20:55:41.120Z,3.58
2022-09-14T20:58:13.022Z,3.63
2022-09-14T21:00:46.196Z,3.00
2022-09-14T21:03:18.248Z,2.83
2022-09-14T21:05:53.772Z,2.80
2022-09-14T21:08:26.045Z,3.13
2022-09-14T21:10:58.040Z,2.40
2022-09-14T21:13:30.477Z,2.75
2022-09-14T21:16:19.588Z,3.17
2022-09-14T21:18:58.614Z,2.58
2022-09-14T21:21:30.946Z,2.47
2022-09-14T21:24:06.002Z,1.88
2022-09-14T21:26:42.550Z,3.28
2022-09-14T21:29:23.628Z,2.45
2022-09-14T21:31:55.849Z,2.42
2022-09-14T21:34:27.864Z,1.95
2022-09-14T21:36:59.832Z,2.38
2022-09-14T21:39:32.036Z,2.38
2022-09-14T21:42:04.192Z,1.83
2022-09-14T21:44:37.924Z,2.65
2022-09-14T21:47:09.810Z,2.70
2022-09-14T21:49:41.832Z,2.30
2022-09-14T21:52:13.879Z,2.67
2022-09-14T21:54:45.816Z,2.60
2022-09-14T21:57:17.738Z,3.35
2022-09-14T21:59:49.648Z,3.50
2022-09-14T22:02:21.990Z,2.97
2022-09-14T22:04:53.998Z,3.03
2022-09-14T22:07:25.938Z,3.28
2022-09-14T22:09:57.838Z,4.57
2022-09-14T22:12:31.061Z,2.42
2022-09-14T22:15:02.996Z,3.00
2022-09-14T22:17:35.277Z,2.63
2022-09-14T22:20:08.000Z,3.08
2022-09-14T22:22:40.354Z,2.53
2022-09-14T22:25:12.605Z,2.75
2022-09-14T22:27:44.556Z,1.73
2022-09-14T22:30:16.568Z,2.75
2022-09-14T22:32:48.457Z,2.95
2022-09-14T22:35:20.446Z,2.80
2022-09-14T22:37:52.376Z,2.42
2022-09-14T22:40:24.443Z,2.20
2022-09-14T22:42:56.423Z,2.58
2022-09-14T22:45:28.328Z,2.60
2022-09-14T22:48:00.239Z,2.50
2022-09-14T22:50:32.183Z,2.88
2022-09-14T22:53:04.103Z,3.47
2022-09-14T22:55:40.902Z,3.58
2022-09-14T22:58:22.070Z,2.60
2022-09-14T23:00:54.317Z,2.35
2022-09-14T23:03:26.771Z,2.03
2022-09-14T23:06:01.789Z,2.97
2022-09-14T23:08:35.936Z,4.13
2022-09-14T23:11:11.353Z,2.88
2022-09-14T23:13:43.411Z,2.67
2022-09-14T23:16:19.004Z,4.57
2022-09-14T23:19:03.304Z,2.70
2022-09-14T23:21:36.125Z,2.50
2022-09-14T23:24:08.266Z,2.63
2022-09-14T23:26:40.649Z,1.98
2022-09-14T23:29:16.894Z,3.20
2022-09-14T23:31:49.062Z,2.10
2022-09-14T23:34:21.108Z,2.13
2022-09-14T23:36:53.013Z,1.95
2022-09-14T23:39:25.742Z,3.28
2022-09-14T23:41:57.907Z,4.45
2022-09-14T23:44:29.888Z,2.88
2022-09-14T23:47:02.307Z,2.15
2022-09-14T23:49:34.189Z,2.30
2022-09-14T23:52:06.097Z,1.67
2022-09-14T23:54:38.003Z,2.40
2022-09-14T23:57:09.904Z,2.30
2022-09-14T23:59:41.918Z,2.05
